• Join FlightAware (Why Join?)
  • Login
  • US Flag 
01:54AM EDT


 

Airport Tracker/Info


-or-


 

Live Flight TrackerFlight Track Log ✈ BJS542 ✈ 22-Aug-2013 ✈ KPIH - KSEE

Flight Track Log - Related Links

Times and Time Zones

All times are in EDT time to prevent confusion due to time zone crossing. See the BJS542 flight status page for this flight to view local times or setup timezone preferences in your user account.

Time Position Orientation Groundspeed Altitude Reporting Facility
EDT Latitude Longitude Course Direction KTS MPH feet Rate Location/Type
06:07PM 42.8847 -112.6111 136° Southeast 198 228 5,800  Level Salt Lake Center
06:08PM 42.8272 -112.6067 177° South 213 245 9,100 2,940 Climbing Salt Lake Center
06:09PM 42.7000 -112.7014 172° South  Level Estimated
06:09PM 42.7472 -112.5883 170° South 238 274 11,900  Level Salt Lake Center
06:10PM 42.6301 -112.7365 172° South  Level Estimated
06:10PM 42.6439 -112.5556 167° South 321 369 15,200  Level Salt Lake Center
06:11PM 42.5765 -112.6660 136° Southeast  Level FlightAware Approximate
06:11PM 42.5472 -112.5336 171° South 348 400 18,300  Level Salt Lake Center
06:12PM 42.5230 -112.5956 136° Southeast  Level FlightAware Approximate
06:12PM 42.4503 -112.5131 171° South 353 406 21,700  Level Salt Lake Center
06:13PM 42.3497 -112.4869 169° South 367 422 24,100 2,100 Climbing Salt Lake Center
06:14PM 42.2453 -112.4614 170° South 381 438 26,100 1,740 Climbing Salt Lake Center
06:15PM 42.1342 -112.4283 168° South 406 467 27,700 1,740 Climbing Salt Lake Center
06:16PM 41.9956 -112.3772 165° South 430 495 29,700 1,740 Climbing Salt Lake Center
06:17PM 41.8772 -112.3336 165° South 440 506 31,400 1,860 Climbing Salt Lake Center
06:18PM 41.7600 -112.2903 165° South 439 505 33,600 2,220 Climbing Salt Lake Center
06:19PM 41.6472 -112.2492 165° South 420 483 36,000 1,920 Climbing Salt Lake Center
06:20PM 41.5369 -112.2097 165° South 411 473 37,600 1,380 Climbing Salt Lake Center
06:21PM 41.4258 -112.1700 165° South 414 476 38,900 1,200 Climbing Salt Lake Center
06:22PM 41.2925 -112.1225 165° South 416 479 40,100 960 Climbing Salt Lake Center
06:23PM 41.1786 -112.0911 168° South 422 486 40,900 780 Climbing Salt Lake Center
06:24PM 41.0639 -112.0728 173° South 423 487 41,800 780 Climbing Salt Lake Center
06:25PM 40.9489 -112.0544 173° South 425 489 42,600 780 Climbing Salt Lake Center
06:26PM 40.8344 -112.0328 172° South 420 483 43,500 720 Climbing Salt Lake Center
06:27PM 40.6953 -112.0122 174° South 429 494 44,100 660 Climbing Salt Lake Center
06:28PM 40.5869 -112.0517 195° South 401 461 44,900 420 Climbing Salt Lake Center
06:29PM 40.4786 -112.1064 201° Southwest 418 481 45,000  Climbing Salt Lake Center
06:30PM 40.3703 -112.1653 202° Southwest 426 490 45,000  Level Salt Lake Center
06:31PM 40.2606 -112.2208 201° Southwest 424 488 45,000  Level Salt Lake Center
06:33PM 40.1500 -112.2786 202° Southwest 426 490 45,000  Level Salt Lake Center
06:34PM 40.0172 -112.3450 201° Southwest 425 489 45,000  Level Salt Lake Center
06:35PM 39.9072 -112.4011 201° Southwest 425 489 45,000  Level Salt Lake Center
06:36PM 39.7972 -112.4572 201° Southwest 425 489 45,000  Level Salt Lake Center
06:37PM 39.6875 -112.5122 201° Southwest 422 486 45,000  Level Salt Lake Center
06:38PM 39.5781 -112.5706 202° Southwest 422 486 45,000  Level Salt Lake Center
06:39PM 39.4681 -112.6214 200° South 418 481 45,000  Level Salt Lake Center
06:40PM 39.3519 -112.6747 200° South 416 479 45,000  Level Salt Lake Center
06:41PM 39.2417 -112.7297 201° Southwest 422 486 45,000  Level Salt Lake Center
06:42PM 39.1103 -112.7975 202° Southwest 423 487 45,000  Level Salt Lake Center
06:43PM 39.0006 -112.8511 201° Southwest 423 487 45,000  Level Salt Lake Center
06:44PM 38.8903 -112.9067 201° Southwest 425 489 45,000  Level Salt Lake Center
06:45PM 38.7797 -112.9622 201° Southwest 428 493 45,000  Level Salt Lake Center
06:46PM 38.6703 -113.0133 200° South 422 486 45,000  Level Salt Lake Center
06:47PM 38.5597 -113.0672 201° Southwest 423 487 45,000  Level Salt Lake Center
06:48PM 38.4281 -113.1317 201° Southwest 423 487 45,000  Level Salt Lake Center
06:49PM 38.3183 -113.1836 200° South 422 486 45,000  Level Salt Lake Center
06:50PM 38.2097 -113.2375 201° Southwest 421 484 45,000  Level Salt Lake Center
06:51PM 38.0997 -113.2903 201° Southwest 424 488 45,000  Level Salt Lake Center
06:52PM 37.9906 -113.3428 201° Southwest 424 488 45,000  Level Salt Lake Center
06:53PM 37.8828 -113.3994 203° Southwest 423 487 45,000  Level Salt Lake Center
06:54PM 37.7658 -113.4944 213° Southwest 420 483 45,000  Level Salt Lake Center
06:55PM 37.6675 -113.5714 212° Southwest 419 482 45,000  Level Salt Lake Center
06:56PM 37.5711 -113.6486 212° Southwest 417 480 45,000  Level Los Angeles Center
06:57PM 37.4744 -113.7200 210° Southwest 419 482 45,000  Level Los Angeles Center
06:58PM 37.3681 -113.7917 208° Southwest 420 483 45,000  Level Los Angeles Center
06:59PM 37.2431 -113.8711 207° Southwest 422 486 45,000  Level Los Angeles Center
07:00PM 37.1381 -113.9350 206° Southwest 428 493 45,000  Level Los Angeles Center
07:01PM 37.0342 -114.0006 207° Southwest 419 482 45,000  Level Los Angeles Center
07:02PM 36.9286 -114.0669 207° Southwest 421 484 45,000  Level Los Angeles Center
07:03PM 36.8228 -114.1333 207° Southwest 421 484 45,000  Level Los Angeles Center
07:05PM 36.6936 -114.2153 207° Southwest 432 497 45,000  Level Los Angeles Center
07:06PM 36.5919 -114.2778 206° Southwest 418 481 45,000  Level Los Angeles Center
07:07PM 36.4861 -114.3439 207° Southwest 420 483 45,000  Level Los Angeles Center
07:08PM 36.3781 -114.4100 206° Southwest 428 493 45,000  Level Los Angeles Center
07:09PM 36.2711 -114.4756 206° Southwest 430 495 45,000  Level Los Angeles Center
07:10PM 36.1636 -114.5422 207° Southwest 430 495 45,000  Level Los Angeles Center
07:11PM 36.0567 -114.6075 206° Southwest 428 493 45,000  Level Los Angeles Center
07:12PM 35.9286 -114.6869 207° Southwest 430 495 45,000  Level Los Angeles Center
07:13PM 35.8219 -114.7531 207° Southwest 428 493 45,000  Level Los Angeles Center
07:14PM 35.7161 -114.8172 206° Southwest 425 489 45,000  Level Los Angeles Center
07:15PM 35.6106 -114.8822 207° Southwest 423 487 45,000  Level Los Angeles Center
07:16PM 35.5144 -114.9569 212° Southwest 411 473 45,100  Climbing Los Angeles Center
07:17PM 35.4225 -115.0408 217° Southwest 410 472 45,000 -480 Descending Los Angeles Center
07:18PM 35.3317 -115.1275 218° Southwest 413 475 44,100 -1,020 Descending Los Angeles Center
07:19PM 35.2225 -115.2314 218° Southwest 412 474 42,900 -1,260 Descending Los Angeles Center
07:20PM 35.1475 -115.3056 219° Southwest 414 476 41,500 -2,160 Descending Los Angeles Center
07:21PM 35.0419 -115.4156 220° Southwest 415 478 38,500 -2,760 Descending Los Angeles Center
07:22PM 34.9575 -115.5122 223° Southwest 417 480 35,900 -2,520 Descending Los Angeles Center
07:23PM 34.8739 -115.6103 224° Southwest 417 480 33,400 -2,580 Descending Los Angeles Center
07:24PM 34.7883 -115.7114 224° Southwest 426 490 30,600 -2,160 Descending Los Angeles Center
07:25PM 34.6903 -115.8328 226° Southwest 418 481 28,600 -1,140 Descending Los Angeles Center
07:26PM 34.5850 -115.9442 221° Southwest 427 491 28,000 -300 Descending Los Angeles Center
07:27PM 34.4719 -115.9942 200° South 434 499 28,000  Level Los Angeles Center
07:29PM 34.3575 -116.0469 201° Southwest 437 503 28,000  Level Los Angeles Center
07:30PM 34.2411 -116.0978 200° South 442 509 28,000 -60 Level Los Angeles Center
07:31PM 34.1092 -116.1581 201° Southwest 447 514 27,900 -840 Descending Los Angeles Center
07:32PM 33.9950 -116.2069 200° South 439 505 26,300 -1,500 Descending Los Angeles Center
07:33PM 33.8783 -116.2144 183° South 419 482 24,800 -1,140 Descending Los Angeles Center
07:34PM 33.7639 -116.2289 186° South 413 475 24,000 -720 Descending Los Angeles Center
07:35PM 33.6503 -116.2572 192° South 412 474 23,400 -1,260 Descending Los Angeles Center
07:36PM 33.5197 -116.3117 199° South 418 481 21,500 -1,620 Descending Los Angeles Center
07:37PM 33.4147 -116.3617 202° Southwest 412 474 20,100 -2,400 Descending Los Angeles Center
07:38PM 33.3203 -116.4089 203° Southwest 382 440 16,600 -3,240 Descending Los Angeles Center
07:39PM 33.2331 -116.4569 205° Southwest 354 407 13,400 -2,280 Descending Los Angeles Center
07:40PM 33.1414 -116.5028 203° Southwest 357 411 11,900 -780 Descending Los Angeles Center
07:41PM 33.0322 -116.5522 201° Southwest 354 407 11,900 -180 Level Los Angeles Center
07:42PM 32.9506 -116.6053 209° Southwest 347 399 11,600 -1,080 Descending Los Angeles Center
07:43PM 32.8975 -116.6825 231° Southwest 311 358 9,700 -2,400 Descending Los Angeles Center
07:44PM 32.8467 -116.7572 231° Southwest 297 342 6,700 -2,520 Descending Los Angeles Center
07:45PM 32.8050 -116.8186 231° Southwest 246 283 4,500 -2,100 Descending Los Angeles Center
07:46PM 32.8167 -116.8833 282° West 162 186 2,500 -1,560 Descending Southern California TRACON
07:47PM 32.8167 -116.9333 270° West 143 165 1,400 -780 Descending Southern California TRACON
07:48PM 32.8167 -116.9833 270° West 162 186 1,000 -420 Descending Southern California TRACON